sensor_id;sensor_type;location;lat;lon;timestamp;temperature;humidity
24446;DHT22;13347;50.984;5.822;2023-07-09T00:00:41;22.30;1.00
24446;DHT22;13347;50.984;5.822;2023-07-09T00:03:11;22.20;99.90
24446;DHT22;13347;50.984;5.822;2023-07-09T00:05:38;22.20;1.00
24446;DHT22;13347;50.984;5.822;2023-07-09T00:08:05;22.10;1.00
24446;DHT22;13347;50.984;5.822;2023-07-09T00:10:32;22.10;99.90
24446;DHT22;13347;50.984;5.822;2023-07-09T00:13:00;21.90;99.90
24446;DHT22;13347;50.984;5.822;2023-07-09T00:15:27;21.90;1.00
24446;DHT22;13347;50.984;5.822;2023-07-09T00:17:54;22.00;1.00
24446;DHT22;13347;50.984;5.822;2023-07-09T00:20:23;22.00;1.00
24446;DHT22;13347;50.984;5.822;2023-07-09T00:22:50;22.00;1.00
24446;DHT22;13347;50.984;5.822;2023-07-09T00:25:19;21.80;1.00
24446;DHT22;13347;50.984;5.822;2023-07-09T00:27:46;21.70;1.00
24446;DHT22;13347;50.984;5.822;2023-07-09T00:30:19;21.70;32.30
24446;DHT22;13347;50.984;5.822;2023-07-09T00:32:47;21.60;92.60
24446;DHT22;13347;50.984;5.822;2023-07-09T00:35:14;21.60;99.90
24446;DHT22;13347;50.984;5.822;2023-07-09T00:37:43;21.60;99.90
24446;DHT22;13347;50.984;5.822;2023-07-09T00:40:14;21.70;99.90
24446;DHT22;13347;50.984;5.822;2023-07-09T00:42:45;21.80;99.90
24446;DHT22;13347;50.984;5.822;2023-07-09T00:45:17;21.80;99.90
24446;DHT22;13347;50.984;5.822;2023-07-09T00:47:44;21.90;99.90
24446;DHT22;13347;50.984;5.822;2023-07-09T00:50:16;22.10;99.90
24446;DHT22;13347;50.984;5.822;2023-07-09T00:52:51;22.30;99.90
24446;DHT22;13347;50.984;5.822;2023-07-09T00:55:21;22.30;99.90
24446;DHT22;13347;50.984;5.822;2023-07-09T00:57:49;22.30;99.90
24446;DHT22;13347;50.984;5.822;2023-07-09T01:00:21;22.40;91.40
24446;DHT22;13347;50.984;5.822;2023-07-09T01:02:50;22.50;63.90
24446;DHT22;13347;50.984;5.822;2023-07-09T01:05:17;22.60;1.00
24446;DHT22;13347;50.984;5.822;2023-07-09T01:07:45;22.70;1.00
24446;DHT22;13347;50.984;5.822;2023-07-09T01:10:15;22.80;1.00
24446;DHT22;13347;50.984;5.822;2023-07-09T01:12:44;22.80;1.00
24446;DHT22;13347;50.984;5.822;2023-07-09T01:15:12;22.90;1.00
24446;DHT22;13347;50.984;5.822;2023-07-09T01:17:40;22.90;1.00
24446;DHT22;13347;50.984;5.822;2023-07-09T01:20:14;22.80;1.00
24446;DHT22;13347;50.984;5.822;2023-07-09T01:22:43;22.80;1.00
24446;DHT22;13347;50.984;5.822;2023-07-09T01:25:10;22.80;1.00
24446;DHT22;13347;50.984;5.822;2023-07-09T01:27:38;22.90;1.00
24446;DHT22;13347;50.984;5.822;2023-07-09T01:30:07;22.90;99.90
24446;DHT22;13347;50.984;5.822;2023-07-09T01:32:36;22.90;99.90
24446;DHT22;13347;50.984;5.822;2023-07-09T01:35:04;23.00;99.90
24446;DHT22;13347;50.984;5.822;2023-07-09T01:37:32;23.20;1.00
24446;DHT22;13347;50.984;5.822;2023-07-09T01:40:01;23.30;1.00
24446;DHT22;13347;50.984;5.822;2023-07-09T01:42:30;23.40;1.00
24446;DHT22;13347;50.984;5.822;2023-07-09T01:44:57;23.40;1.00
24446;DHT22;13347;50.984;5.822;2023-07-09T01:47:24;23.40;1.00
24446;DHT22;13347;50.984;5.822;2023-07-09T01:49:52;23.50;1.00
24446;DHT22;13347;50.984;5.822;2023-07-09T01:52:22;23.50;1.00
24446;DHT22;13347;50.984;5.822;2023-07-09T01:54:50;23.40;99.90
24446;DHT22;13347;50.984;5.822;2023-07-09T01:57:19;23.50;99.90
24446;DHT22;13347;50.984;5.822;2023-07-09T01:59:48;23.50;99.90
24446;DHT22;13347;50.984;5.822;2023-07-09T02:02:15;23.40;99.90
24446;DHT22;13347;50.984;5.822;2023-07-09T02:04:46;23.40;99.90
24446;DHT22;13347;50.984;5.822;2023-07-09T02:07:13;23.40;99.90
24446;DHT22;13347;50.984;5.822;2023-07-09T02:09:40;23.30;99.90
24446;DHT22;13347;50.984;5.822;2023-07-09T02:12:08;23.10;99.90
24446;DHT22;13347;50.984;5.822;2023-07-09T02:14:36;22.80;99.90
24446;DHT22;13347;50.984;5.822;2023-07-09T02:17:03;22.50;1.00
24446;DHT22;13347;50.984;5.822;2023-07-09T02:19:30;22.30;1.00
24446;DHT22;13347;50.984;5.822;2023-07-09T02:21:57;22.10;1.00
24446;DHT22;13347;50.984;5.822;2023-07-09T02:24:25;21.90;1.00
24446;DHT22;13347;50.984;5.822;2023-07-09T02:26:53;21.80;99.90
24446;DHT22;13347;50.984;5.822;2023-07-09T02:29:20;21.80;1.00
24446;DHT22;13347;50.984;5.822;2023-07-09T02:31:49;21.60;1.00
24446;DHT22;13347;50.984;5.822;2023-07-09T02:34:16;21.30;1.00
24446;DHT22;13347;50.984;5.822;2023-07-09T02:36:43;21.30;1.00
24446;DHT22;13347;50.984;5.822;2023-07-09T02:39:10;21.30;53.30
24446;DHT22;13347;50.984;5.822;2023-07-09T02:41:38;21.60;99.90
24446;DHT22;13347;50.984;5.822;2023-07-09T02:44:05;21.50;99.60
24446;DHT22;13347;50.984;5.822;2023-07-09T02:46:32;21.40;99.90
24446;DHT22;13347;50.984;5.822;2023-07-09T02:49:02;21.40;99.90
24446;DHT22;13347;50.984;5.822;2023-07-09T02:51:30;21.40;99.90
24446;DHT22;13347;50.984;5.822;2023-07-09T02:53:57;21.30;99.90
24446;DHT22;13347;50.984;5.822;2023-07-09T02:56:24;21.30;99.90
24446;DHT22;13347;50.984;5.822;2023-07-09T02:58:52;21.20;99.90
24446;DHT22;13347;50.984;5.822;2023-07-09T03:01:19;21.40;99.90
24446;DHT22;13347;50.984;5.822;2023-07-09T03:03:50;21.60;99.90
24446;DHT22;13347;50.984;5.822;2023-07-09T03:06:19;21.70;99.90
24446;DHT22;13347;50.984;5.822;2023-07-09T03:08:46;21.90;99.90
24446;DHT22;13347;50.984;5.822;2023-07-09T03:11:14;21.90;44.10
24446;DHT22;13347;50.984;5.822;2023-07-09T03:13:41;22.00;1.00
24446;DHT22;13347;50.984;5.822;2023-07-09T03:16:08;22.00;1.00
24446;DHT22;13347;50.984;5.822;2023-07-09T03:18:35;22.10;1.00
24446;DHT22;13347;50.984;5.822;2023-07-09T03:21:02;22.00;1.00
24446;DHT22;13347;50.984;5.822;2023-07-09T03:23:30;22.10;1.00
24446;DHT22;13347;50.984;5.822;2023-07-09T03:25:57;22.20;1.00
24446;DHT22;13347;50.984;5.822;2023-07-09T03:28:25;22.10;1.00
24446;DHT22;13347;50.984;5.822;2023-07-09T03:30:53;22.10;1.00
24446;DHT22;13347;50.984;5.822;2023-07-09T03:33:20;22.10;1.00
24446;DHT22;13347;50.984;5.822;2023-07-09T03:35:47;22.00;1.00
24446;DHT22;13347;50.984;5.822;2023-07-09T03:38:14;22.00;1.00
24446;DHT22;13347;50.984;5.822;2023-07-09T03:40:43;22.10;1.00
24446;DHT22;13347;50.984;5.822;2023-07-09T03:43:10;22.10;1.00
24446;DHT22;13347;50.984;5.822;2023-07-09T03:45:37;22.20;1.00
24446;DHT22;13347;50.984;5.822;2023-07-09T03:48:04;22.20;1.00
24446;DHT22;13347;50.984;5.822;2023-07-09T03:50:32;22.20;1.00
24446;DHT22;13347;50.984;5.822;2023-07-09T03:52:59;22.30;1.00
24446;DHT22;13347;50.984;5.822;2023-07-09T03:55:26;22.30;99.90
24446;DHT22;13347;50.984;5.822;2023-07-09T03:57:54;22.30;99.90
24446;DHT22;13347;50.984;5.822;2023-07-09T04:00:22;22.30;99.90
24446;DHT22;13347;50.984;5.822;2023-07-09T04:02:49;22.40;99.90
24446;DHT22;13347;50.984;5.822;2023-07-09T04:05:16;22.40;99.90
24446;DHT22;13347;50.984;5.822;2023-07-09T04:07:43;22.30;13.50
24446;DHT22;13347;50.984;5.822;2023-07-09T04:10:14;22.10;96.50
24446;DHT22;13347;50.984;5.822;2023-07-09T04:12:41;22.10;99.90
24446;DHT22;13347;50.984;5.822;2023-07-09T04:15:09;21.90;1.00
24446;DHT22;13347;50.984;5.822;2023-07-09T04:17:38;22.00;1.00
24446;DHT22;13347;50.984;5.822;2023-07-09T04:20:05;22.30;99.90
24446;DHT22;13347;50.984;5.822;2023-07-09T04:22:32;22.50;99.90
24446;DHT22;13347;50.984;5.822;2023-07-09T04:24:59;22.50;1.00
24446;DHT22;13347;50.984;5.822;2023-07-09T04:27:28;22.50;1.00
24446;DHT22;13347;50.984;5.822;2023-07-09T04:29:55;22.50;1.00
24446;DHT22;13347;50.984;5.822;2023-07-09T04:32:23;22.50;1.00
24446;DHT22;13347;50.984;5.822;2023-07-09T04:34:50;22.40;1.00
24446;DHT22;13347;50.984;5.822;2023-07-09T04:37:17;22.40;99.90
24446;DHT22;13347;50.984;5.822;2023-07-09T04:39:44;22.50;99.90
24446;DHT22;13347;50.984;5.822;2023-07-09T04:42:14;22.50;99.90
24446;DHT22;13347;50.984;5.822;2023-07-09T04:44:41;22.60;97.40
24446;DHT22;13347;50.984;5.822;2023-07-09T04:47:08;22.80;1.00
24446;DHT22;13347;50.984;5.822;2023-07-09T04:49:39;22.70;1.00
24446;DHT22;13347;50.984;5.822;2023-07-09T04:52:06;22.80;1.00
24446;DHT22;13347;50.984;5.822;2023-07-09T04:54:37;22.80;1.00
24446;DHT22;13347;50.984;5.822;2023-07-09T04:57:04;23.00;1.00
24446;DHT22;13347;50.984;5.822;2023-07-09T04:59:31;23.20;1.00
24446;DHT22;13347;50.984;5.822;2023-07-09T05:01:58;23.40;99.90
24446;DHT22;13347;50.984;5.822;2023-07-09T05:04:25;23.50;1.00
24446;DHT22;13347;50.984;5.822;2023-07-09T05:06:54;23.50;1.00
24446;DHT22;13347;50.984;5.822;2023-07-09T05:09:21;23.60;1.00
24446;DHT22;13347;50.984;5.822;2023-07-09T05:11:49;23.60;99.90
24446;DHT22;13347;50.984;5.822;2023-07-09T05:14:16;23.70;99.90
24446;DHT22;13347;50.984;5.822;2023-07-09T05:16:43;24.20;1.00
24446;DHT22;13347;50.984;5.822;2023-07-09T05:19:11;24.60;99.90
24446;DHT22;13347;50.984;5.822;2023-07-09T05:21:38;24.70;1.00
24446;DHT22;13347;50.984;5.822;2023-07-09T05:24:06;24.90;1.00
24446;DHT22;13347;50.984;5.822;2023-07-09T05:26:33;25.10;1.00
24446;DHT22;13347;50.984;5.822;2023-07-09T05:29:02;25.50;1.00
24446;DHT22;13347;50.984;5.822;2023-07-09T05:31:29;25.70;99.90
24446;DHT22;13347;50.984;5.822;2023-07-09T05:33:56;26.20;1.00
24446;DHT22;13347;50.984;5.822;2023-07-09T05:36:23;26.70;1.00
24446;DHT22;13347;50.984;5.822;2023-07-09T05:38:50;27.00;1.00
24446;DHT22;13347;50.984;5.822;2023-07-09T05:41:18;27.40;99.90
24446;DHT22;13347;50.984;5.822;2023-07-09T05:43:45;27.80;99.90
24446;DHT22;13347;50.984;5.822;2023-07-09T05:46:13;27.60;1.00
24446;DHT22;13347;50.984;5.822;2023-07-09T05:48:40;27.60;1.00
24446;DHT22;13347;50.984;5.822;2023-07-09T05:51:07;27.80;1.00
24446;DHT22;13347;50.984;5.822;2023-07-09T05:53:35;28.20;1.00
24446;DHT22;13347;50.984;5.822;2023-07-09T05:56:02;28.70;1.00
24446;DHT22;13347;50.984;5.822;2023-07-09T05:58:30;29.00;1.00
24446;DHT22;13347;50.984;5.822;2023-07-09T06:00:57;29.10;1.00
24446;DHT22;13347;50.984;5.822;2023-07-09T06:03:25;29.20;1.00
24446;DHT22;13347;50.984;5.822;2023-07-09T06:05:52;29.00;1.00
24446;DHT22;13347;50.984;5.822;2023-07-09T06:08:19;29.20;1.00
24446;DHT22;13347;50.984;5.822;2023-07-09T06:10:50;29.50;1.00
24446;DHT22;13347;50.984;5.822;2023-07-09T06:13:17;30.00;99.90
24446;DHT22;13347;50.984;5.822;2023-07-09T06:15:47;30.30;99.90
24446;DHT22;13347;50.984;5.822;2023-07-09T06:18:14;30.80;99.90
24446;DHT22;13347;50.984;5.822;2023-07-09T06:20:41;31.10;99.90
24446;DHT22;13347;50.984;5.822;2023-07-09T06:23:08;30.70;99.90
24446;DHT22;13347;50.984;5.822;2023-07-09T06:25:37;30.70;99.90
24446;DHT22;13347;50.984;5.822;2023-07-09T06:28:04;31.10;99.90
24446;DHT22;13347;50.984;5.822;2023-07-09T06:30:31;31.10;92.50
24446;DHT22;13347;50.984;5.822;2023-07-09T06:33:00;30.90;18.40
24446;DHT22;13347;50.984;5.822;2023-07-09T06:35:27;31.40;9.80
24446;DHT22;13347;50.984;5.822;2023-07-09T06:37:54;31.50;1.00
24446;DHT22;13347;50.984;5.822;2023-07-09T06:40:21;31.20;1.00
24446;DHT22;13347;50.984;5.822;2023-07-09T06:42:48;31.20;1.00
24446;DHT22;13347;50.984;5.822;2023-07-09T06:45:15;31.60;1.00
24446;DHT22;13347;50.984;5.822;2023-07-09T06:47:42;31.40;1.00
24446;DHT22;13347;50.984;5.822;2023-07-09T06:50:11;31.20;1.00
24446;DHT22;13347;50.984;5.822;2023-07-09T06:52:38;31.10;1.00
24446;DHT22;13347;50.984;5.822;2023-07-09T06:55:05;31.00;1.00
24446;DHT22;13347;50.984;5.822;2023-07-09T06:57:32;31.00;1.00
24446;DHT22;13347;50.984;5.822;2023-07-09T06:59:59;31.20;1.00
24446;DHT22;13347;50.984;5.822;2023-07-09T07:02:27;31.30;1.00
24446;DHT22;13347;50.984;5.822;2023-07-09T07:04:54;31.30;1.00
24446;DHT22;13347;50.984;5.822;2023-07-09T07:07:22;31.70;1.00
24446;DHT22;13347;50.984;5.822;2023-07-09T07:09:52;32.00;1.00
24446;DHT22;13347;50.984;5.822;2023-07-09T07:12:22;32.40;1.00
24446;DHT22;13347;50.984;5.822;2023-07-09T07:14:50;32.40;1.00
24446;DHT22;13347;50.984;5.822;2023-07-09T07:17:17;32.20;1.00
24446;DHT22;13347;50.984;5.822;2023-07-09T07:19:43;32.20;1.00
24446;DHT22;13347;50.984;5.822;2023-07-09T07:22:10;32.50;1.00
24446;DHT22;13347;50.984;5.822;2023-07-09T07:24:39;32.90;1.00
24446;DHT22;13347;50.984;5.822;2023-07-09T07:27:06;32.60;1.00
24446;DHT22;13347;50.984;5.822;2023-07-09T07:29:34;32.90;1.00
24446;DHT22;13347;50.984;5.822;2023-07-09T07:32:01;33.10;1.00
24446;DHT22;13347;50.984;5.822;2023-07-09T07:34:28;32.90;1.00
24446;DHT22;13347;50.984;5.822;2023-07-09T07:36:55;33.10;1.00
24446;DHT22;13347;50.984;5.822;2023-07-09T07:39:22;33.00;1.00
24446;DHT22;13347;50.984;5.822;2023-07-09T07:41:51;33.00;1.00
24446;DHT22;13347;50.984;5.822;2023-07-09T07:44:18;33.30;1.00
24446;DHT22;13347;50.984;5.822;2023-07-09T07:46:45;33.30;1.00
24446;DHT22;13347;50.984;5.822;2023-07-09T07:49:12;33.10;1.00
24446;DHT22;13347;50.984;5.822;2023-07-09T07:51:39;32.90;1.00
24446;DHT22;13347;50.984;5.822;2023-07-09T07:54:07;33.90;1.00
24446;DHT22;13347;50.984;5.822;2023-07-09T07:56:35;34.00;1.00
24446;DHT22;13347;50.984;5.822;2023-07-09T07:59:04;34.30;1.00
24446;DHT22;13347;50.984;5.822;2023-07-09T08:01:31;34.10;1.00
24446;DHT22;13347;50.984;5.822;2023-07-09T08:04:00;33.30;1.00
24446;DHT22;13347;50.984;5.822;2023-07-09T08:06:27;33.30;1.00
24446;DHT22;13347;50.984;5.822;2023-07-09T08:08:56;33.70;1.00
24446;DHT22;13347;50.984;5.822;2023-07-09T08:11:23;33.70;1.00
24446;DHT22;13347;50.984;5.822;2023-07-09T08:13:51;34.10;1.00
24446;DHT22;13347;50.984;5.822;2023-07-09T08:16:19;33.60;1.00
24446;DHT22;13347;50.984;5.822;2023-07-09T08:18:46;33.30;1.00
24446;DHT22;13347;50.984;5.822;2023-07-09T08:21:13;33.10;1.00
24446;DHT22;13347;50.984;5.822;2023-07-09T08:23:40;32.80;1.00
24446;DHT22;13347;50.984;5.822;2023-07-09T08:26:07;32.60;1.00
24446;DHT22;13347;50.984;5.822;2023-07-09T08:28:34;32.40;1.00
24446;DHT22;13347;50.984;5.822;2023-07-09T08:31:01;32.70;1.00
24446;DHT22;13347;50.984;5.822;2023-07-09T08:33:30;33.20;1.00
24446;DHT22;13347;50.984;5.822;2023-07-09T08:35:57;33.00;1.00
24446;DHT22;13347;50.984;5.822;2023-07-09T08:38:24;32.80;1.00
24446;DHT22;13347;50.984;5.822;2023-07-09T08:40:54;32.60;1.00
24446;DHT22;13347;50.984;5.822;2023-07-09T08:43:26;32.70;1.00
24446;DHT22;13347;50.984;5.822;2023-07-09T08:45:56;32.60;1.00
24446;DHT22;13347;50.984;5.822;2023-07-09T08:48:26;32.50;1.00
24446;DHT22;13347;50.984;5.822;2023-07-09T08:50:58;32.70;1.00
24446;DHT22;13347;50.984;5.822;2023-07-09T08:53:28;32.80;1.00
24446;DHT22;13347;50.984;5.822;2023-07-09T08:55:58;33.00;1.00
24446;DHT22;13347;50.984;5.822;2023-07-09T08:58:26;33.40;1.00
24446;DHT22;13347;50.984;5.822;2023-07-09T09:00:55;34.00;1.00
24446;DHT22;13347;50.984;5.822;2023-07-09T09:03:27;34.60;1.00
24446;DHT22;13347;50.984;5.822;2023-07-09T09:05:56;34.70;1.00
24446;DHT22;13347;50.984;5.822;2023-07-09T09:08:29;35.50;1.00
24446;DHT22;13347;50.984;5.822;2023-07-09T09:11:00;35.60;1.00
24446;DHT22;13347;50.984;5.822;2023-07-09T09:13:31;35.70;1.00
24446;DHT22;13347;50.984;5.822;2023-07-09T09:16:00;35.80;1.00
24446;DHT22;13347;50.984;5.822;2023-07-09T09:18:39;36.10;1.00
24446;DHT22;13347;50.984;5.822;2023-07-09T09:21:10;36.60;1.00
24446;DHT22;13347;50.984;5.822;2023-07-09T09:23:40;36.20;1.00
24446;DHT22;13347;50.984;5.822;2023-07-09T09:26:09;35.90;1.00
24446;DHT22;13347;50.984;5.822;2023-07-09T09:28:40;36.00;99.90
24446;DHT22;13347;50.984;5.822;2023-07-09T09:31:08;36.20;1.00
24446;DHT22;13347;50.984;5.822;2023-07-09T09:33:40;36.30;99.90
24446;DHT22;13347;50.984;5.822;2023-07-09T09:36:14;37.00;99.90
24446;DHT22;13347;50.984;5.822;2023-07-09T09:38:41;37.20;99.90
24446;DHT22;13347;50.984;5.822;2023-07-09T09:41:12;37.40;99.90
24446;DHT22;13347;50.984;5.822;2023-07-09T09:43:41;37.40;99.90
24446;DHT22;13347;50.984;5.822;2023-07-09T09:46:09;36.60;99.90
24446;DHT22;13347;50.984;5.822;2023-07-09T09:48:36;36.60;99.90
24446;DHT22;13347;50.984;5.822;2023-07-09T09:51:04;37.00;99.90
24446;DHT22;13347;50.984;5.822;2023-07-09T09:53:37;36.90;99.90
24446;DHT22;13347;50.984;5.822;2023-07-09T09:56:05;37.20;99.90
24446;DHT22;13347;50.984;5.822;2023-07-09T09:58:32;37.90;99.90
24446;DHT22;13347;50.984;5.822;2023-07-09T10:00:59;38.10;99.90
24446;DHT22;13347;50.984;5.822;2023-07-09T10:03:33;38.60;99.90
24446;DHT22;13347;50.984;5.822;2023-07-09T10:06:01;38.60;99.90
24446;DHT22;13347;50.984;5.822;2023-07-09T10:08:35;38.90;99.90
24446;DHT22;13347;50.984;5.822;2023-07-09T10:11:08;39.00;99.90
24446;DHT22;13347;50.984;5.822;2023-07-09T10:13:38;39.00;99.90
24446;DHT22;13347;50.984;5.822;2023-07-09T10:16:08;38.50;99.90
24446;DHT22;13347;50.984;5.822;2023-07-09T10:18:39;38.70;99.90
24446;DHT22;13347;50.984;5.822;2023-07-09T10:21:10;38.80;99.90
24446;DHT22;13347;50.984;5.822;2023-07-09T10:23:43;38.80;99.90
24446;DHT22;13347;50.984;5.822;2023-07-09T10:26:17;39.30;99.90
24446;DHT22;13347;50.984;5.822;2023-07-09T10:31:34;39.40;99.90
24446;DHT22;13347;50.984;5.822;2023-07-09T10:34:06;38.80;99.90
24446;DHT22;13347;50.984;5.822;2023-07-09T10:36:44;38.90;99.90
24446;DHT22;13347;50.984;5.822;2023-07-09T10:39:14;38.60;99.90
24446;DHT22;13347;50.984;5.822;2023-07-09T10:41:43;37.80;86.10
24446;DHT22;13347;50.984;5.822;2023-07-09T10:44:13;37.90;93.50
24446;DHT22;13347;50.984;5.822;2023-07-09T10:46:44;38.40;99.90
24446;DHT22;13347;50.984;5.822;2023-07-09T10:49:13;38.50;90.70
24446;DHT22;13347;50.984;5.822;2023-07-09T10:51:42;38.70;32.70
24446;DHT22;13347;50.984;5.822;2023-07-09T10:54:12;38.90;34.50
24446;DHT22;13347;50.984;5.822;2023-07-09T10:56:41;38.90;44.70
24446;DHT22;13347;50.984;5.822;2023-07-09T10:59:14;39.10;81.20
24446;DHT22;13347;50.984;5.822;2023-07-09T11:01:43;39.00;1.00
24446;DHT22;13347;50.984;5.822;2023-07-09T11:04:15;38.40;1.00
24446;DHT22;13347;50.984;5.822;2023-07-09T11:06:47;38.20;1.00
24446;DHT22;13347;50.984;5.822;2023-07-09T11:09:18;38.30;1.00
24446;DHT22;13347;50.984;5.822;2023-07-09T11:11:47;38.40;1.00
24446;DHT22;13347;50.984;5.822;2023-07-09T11:14:21;38.50;1.00
24446;DHT22;13347;50.984;5.822;2023-07-09T11:16:49;37.80;1.00
24446;DHT22;13347;50.984;5.822;2023-07-09T11:19:17;37.60;1.00
24446;DHT22;13347;50.984;5.822;2023-07-09T11:21:57;37.50;1.00
24446;DHT22;13347;50.984;5.822;2023-07-09T11:24:29;37.70;1.00
24446;DHT22;13347;50.984;5.822;2023-07-09T11:26:56;38.20;1.00
24446;DHT22;13347;50.984;5.822;2023-07-09T11:29:27;38.40;1.00
24446;DHT22;13347;50.984;5.822;2023-07-09T11:31:55;37.80;1.00
24446;DHT22;13347;50.984;5.822;2023-07-09T11:34:27;37.70;1.00
24446;DHT22;13347;50.984;5.822;2023-07-09T11:36:57;37.80;1.00
24446;DHT22;13347;50.984;5.822;2023-07-09T11:39:27;37.70;1.00
24446;DHT22;13347;50.984;5.822;2023-07-09T11:41:54;38.20;1.00
24446;DHT22;13347;50.984;5.822;2023-07-09T11:44:22;38.50;1.00
24446;DHT22;13347;50.984;5.822;2023-07-09T11:46:52;38.00;1.00
24446;DHT22;13347;50.984;5.822;2023-07-09T11:49:21;37.70;1.00
24446;DHT22;13347;50.984;5.822;2023-07-09T11:51:52;37.40;1.00
24446;DHT22;13347;50.984;5.822;2023-07-09T11:54:20;37.20;1.00
24446;DHT22;13347;50.984;5.822;2023-07-09T11:56:54;37.40;1.00
24446;DHT22;13347;50.984;5.822;2023-07-09T11:59:21;37.50;1.00
24446;DHT22;13347;50.984;5.822;2023-07-09T12:01:48;37.60;1.00
24446;DHT22;13347;50.984;5.822;2023-07-09T12:04:20;37.60;1.00
24446;DHT22;13347;50.984;5.822;2023-07-09T12:06:48;37.70;1.00
24446;DHT22;13347;50.984;5.822;2023-07-09T12:09:16;37.60;1.00
24446;DHT22;13347;50.984;5.822;2023-07-09T12:11:44;37.60;1.00
24446;DHT22;13347;50.984;5.822;2023-07-09T12:14:11;37.50;1.00
24446;DHT22;13347;50.984;5.822;2023-07-09T12:16:39;36.80;1.00
24446;DHT22;13347;50.984;5.822;2023-07-09T12:19:07;36.50;1.00
24446;DHT22;13347;50.984;5.822;2023-07-09T12:21:37;36.50;1.00
24446;DHT22;13347;50.984;5.822;2023-07-09T12:24:13;36.50;1.00
24446;DHT22;13347;50.984;5.822;2023-07-09T12:26:43;36.10;1.00
24446;DHT22;13347;50.984;5.822;2023-07-09T12:29:10;35.90;1.00
24446;DHT22;13347;50.984;5.822;2023-07-09T12:31:39;35.30;1.00
24446;DHT22;13347;50.984;5.822;2023-07-09T12:34:10;34.80;1.00
24446;DHT22;13347;50.984;5.822;2023-07-09T12:36:40;34.30;1.00
24446;DHT22;13347;50.984;5.822;2023-07-09T12:39:08;34.00;1.00
24446;DHT22;13347;50.984;5.822;2023-07-09T12:41:38;33.50;1.00
24446;DHT22;13347;50.984;5.822;2023-07-09T12:44:08;33.20;1.00
24446;DHT22;13347;50.984;5.822;2023-07-09T12:46:38;33.10;1.00
24446;DHT22;13347;50.984;5.822;2023-07-09T12:49:05;32.70;1.00
24446;DHT22;13347;50.984;5.822;2023-07-09T12:51:32;32.30;1.00
24446;DHT22;13347;50.984;5.822;2023-07-09T12:54:01;31.80;1.00
24446;DHT22;13347;50.984;5.822;2023-07-09T12:56:29;31.40;1.00
24446;DHT22;13347;50.984;5.822;2023-07-09T12:58:56;30.90;1.00
24446;DHT22;13347;50.984;5.822;2023-07-09T13:01:24;30.50;1.00
24446;DHT22;13347;50.984;5.822;2023-07-09T13:03:54;30.00;1.00
24446;DHT22;13347;50.984;5.822;2023-07-09T13:06:26;29.40;87.00
24446;DHT22;13347;50.984;5.822;2023-07-09T13:08:55;28.80;99.90
24446;DHT22;13347;50.984;5.822;2023-07-09T13:11:24;27.30;1.00
24446;DHT22;13347;50.984;5.822;2023-07-09T13:13:55;26.00;1.00
24446;DHT22;13347;50.984;5.822;2023-07-09T13:16:22;25.00;99.90
24446;DHT22;13347;50.984;5.822;2023-07-09T13:18:49;24.50;1.00
24446;DHT22;13347;50.984;5.822;2023-07-09T13:21:16;24.40;1.00
24446;DHT22;13347;50.984;5.822;2023-07-09T13:23:44;24.50;1.00
24446;DHT22;13347;50.984;5.822;2023-07-09T13:26:12;24.50;18.20
24446;DHT22;13347;50.984;5.822;2023-07-09T13:28:41;24.20;99.90
24446;DHT22;13347;50.984;5.822;2023-07-09T13:31:11;24.00;91.60
24446;DHT22;13347;50.984;5.822;2023-07-09T13:33:40;23.70;99.90
24446;DHT22;13347;50.984;5.822;2023-07-09T13:36:07;23.50;99.90
24446;DHT22;13347;50.984;5.822;2023-07-09T13:38:34;23.30;72.30
24446;DHT22;13347;50.984;5.822;2023-07-09T13:41:10;22.20;99.90
24446;DHT22;13347;50.984;5.822;2023-07-09T13:43:37;21.60;99.90
24446;DHT22;13347;50.984;5.822;2023-07-09T13:46:07;21.80;99.90
24446;DHT22;13347;50.984;5.822;2023-07-09T13:48:35;22.00;99.90
24446;DHT22;13347;50.984;5.822;2023-07-09T13:51:05;22.10;99.90
24446;DHT22;13347;50.984;5.822;2023-07-09T13:53:37;22.40;99.90
24446;DHT22;13347;50.984;5.822;2023-07-09T13:56:05;23.10;99.90
24446;DHT22;13347;50.984;5.822;2023-07-09T13:58:32;23.50;99.90
24446;DHT22;13347;50.984;5.822;2023-07-09T14:00:59;23.70;99.90
24446;DHT22;13347;50.984;5.822;2023-07-09T14:03:31;24.00;99.90
24446;DHT22;13347;50.984;5.822;2023-07-09T14:05:59;24.40;99.90
24446;DHT22;13347;50.984;5.822;2023-07-09T14:08:26;24.60;99.90
24446;DHT22;13347;50.984;5.822;2023-07-09T14:10:53;24.90;99.90
24446;DHT22;13347;50.984;5.822;2023-07-09T14:13:21;25.20;99.90
24446;DHT22;13347;50.984;5.822;2023-07-09T14:15:48;25.10;99.90
24446;DHT22;13347;50.984;5.822;2023-07-09T14:18:18;25.10;99.90
24446;DHT22;13347;50.984;5.822;2023-07-09T14:20:47;24.90;99.90
24446;DHT22;13347;50.984;5.822;2023-07-09T14:23:14;24.80;99.90
24446;DHT22;13347;50.984;5.822;2023-07-09T14:25:42;24.50;99.90
24446;DHT22;13347;50.984;5.822;2023-07-09T14:28:10;24.40;99.90
24446;DHT22;13347;50.984;5.822;2023-07-09T14:30:37;24.50;99.90
24446;DHT22;13347;50.984;5.822;2023-07-09T14:33:04;24.70;99.90
24446;DHT22;13347;50.984;5.822;2023-07-09T14:35:31;24.90;99.90
24446;DHT22;13347;50.984;5.822;2023-07-09T14:38:00;25.20;99.90
24446;DHT22;13347;50.984;5.822;2023-07-09T14:40:27;25.40;99.90
24446;DHT22;13347;50.984;5.822;2023-07-09T14:42:54;25.30;99.90
24446;DHT22;13347;50.984;5.822;2023-07-09T14:45:22;25.00;99.90
24446;DHT22;13347;50.984;5.822;2023-07-09T14:47:50;25.10;99.90
24446;DHT22;13347;50.984;5.822;2023-07-09T14:50:17;25.10;99.90
24446;DHT22;13347;50.984;5.822;2023-07-09T14:52:45;25.00;99.90
24446;DHT22;13347;50.984;5.822;2023-07-09T14:55:15;25.30;99.90
24446;DHT22;13347;50.984;5.822;2023-07-09T14:57:42;25.30;99.90
24446;DHT22;13347;50.984;5.822;2023-07-09T15:00:13;25.20;99.90
24446;DHT22;13347;50.984;5.822;2023-07-09T15:02:41;25.40;64.40
24446;DHT22;13347;50.984;5.822;2023-07-09T15:05:11;25.60;99.90
24446;DHT22;13347;50.984;5.822;2023-07-09T15:07:39;25.70;1.00
24446;DHT22;13347;50.984;5.822;2023-07-09T15:10:06;25.70;1.00
24446;DHT22;13347;50.984;5.822;2023-07-09T15:12:36;25.70;1.00
24446;DHT22;13347;50.984;5.822;2023-07-09T15:15:06;25.80;1.00
24446;DHT22;13347;50.984;5.822;2023-07-09T15:17:38;26.00;1.00
24446;DHT22;13347;50.984;5.822;2023-07-09T15:20:07;25.90;99.90
24446;DHT22;13347;50.984;5.822;2023-07-09T15:22:35;26.50;99.90
24446;DHT22;13347;50.984;5.822;2023-07-09T15:25:02;26.50;1.00
24446;DHT22;13347;50.984;5.822;2023-07-09T15:27:29;26.80;99.90
24446;DHT22;13347;50.984;5.822;2023-07-09T15:29:58;27.20;1.00
24446;DHT22;13347;50.984;5.822;2023-07-09T15:32:25;27.70;1.00
24446;DHT22;13347;50.984;5.822;2023-07-09T15:34:52;28.00;99.90
24446;DHT22;13347;50.984;5.822;2023-07-09T15:37:19;28.40;1.00
24446;DHT22;13347;50.984;5.822;2023-07-09T15:39:46;28.60;99.90
24446;DHT22;13347;50.984;5.822;2023-07-09T15:42:13;28.90;1.00
24446;DHT22;13347;50.984;5.822;2023-07-09T15:44:40;29.20;99.90
24446;DHT22;13347;50.984;5.822;2023-07-09T15:47:13;29.50;1.00
24446;DHT22;13347;50.984;5.822;2023-07-09T15:49:42;29.40;1.00